sensor_id;sensor_type;location;lat;lon;timestamp;P1;durP1;ratioP1;P2;durP2;ratioP2
5730;SDS011;2890;51.950;7.668;2022-09-09T00:00:40;3.22;;;2.30;;
5730;SDS011;2890;51.950;7.668;2022-09-09T00:03:14;6.25;;;2.67;;
5730;SDS011;2890;51.950;7.668;2022-09-09T00:05:46;4.80;;;2.47;;
5730;SDS011;2890;51.950;7.668;2022-09-09T00:08:18;3.65;;;2.38;;
5730;SDS011;2890;51.950;7.668;2022-09-09T00:10:48;4.03;;;2.35;;
5730;SDS011;2890;51.950;7.668;2022-09-09T00:13:22;6.50;;;2.45;;
5730;SDS011;2890;51.950;7.668;2022-09-09T00:15:57;4.97;;;2.30;;
5730;SDS011;2890;51.950;7.668;2022-09-09T00:18:29;4.90;;;2.30;;
5730;SDS011;2890;51.950;7.668;2022-09-09T00:21:06;5.22;;;2.20;;
5730;SDS011;2890;51.950;7.668;2022-09-09T00:23:38;3.70;;;1.58;;
5730;SDS011;2890;51.950;7.668;2022-09-09T00:26:08;4.40;;;1.95;;
5730;SDS011;2890;51.950;7.668;2022-09-09T00:28:41;2.97;;;1.92;;
5730;SDS011;2890;51.950;7.668;2022-09-09T00:31:16;3.28;;;2.00;;
5730;SDS011;2890;51.950;7.668;2022-09-09T00:33:50;5.00;;;2.50;;
5730;SDS011;2890;51.950;7.668;2022-09-09T00:36:20;8.60;;;2.53;;
5730;SDS011;2890;51.950;7.668;2022-09-09T00:38:51;4.75;;;2.58;;
5730;SDS011;2890;51.950;7.668;2022-09-09T00:41:22;10.25;;;2.25;;
5730;SDS011;2890;51.950;7.668;2022-09-09T00:44:00;9.98;;;2.38;;
5730;SDS011;2890;51.950;7.668;2022-09-09T00:46:47;5.10;;;2.35;;
5730;SDS011;2890;51.950;7.668;2022-09-09T00:49:26;4.75;;;2.00;;
5730;SDS011;2890;51.950;7.668;2022-09-09T00:52:03;2.47;;;1.73;;
5730;SDS011;2890;51.950;7.668;2022-09-09T00:54:45;3.80;;;1.98;;
5730;SDS011;2890;51.950;7.668;2022-09-09T00:57:23;4.63;;;1.83;;
5730;SDS011;2890;51.950;7.668;2022-09-09T00:59:56;2.25;;;1.60;;
5730;SDS011;2890;51.950;7.668;2022-09-09T01:02:31;2.95;;;1.80;;
5730;SDS011;2890;51.950;7.668;2022-09-09T01:05:07;2.75;;;1.70;;
5730;SDS011;2890;51.950;7.668;2022-09-09T01:07:39;3.25;;;1.70;;
5730;SDS011;2890;51.950;7.668;2022-09-09T01:10:12;3.63;;;1.75;;
5730;SDS011;2890;51.950;7.668;2022-09-09T01:12:47;2.47;;;1.60;;
5730;SDS011;2890;51.950;7.668;2022-09-09T01:15:18;1.80;;;1.55;;
5730;SDS011;2890;51.950;7.668;2022-09-09T01:17:51;3.65;;;2.30;;
5730;SDS011;2890;51.950;7.668;2022-09-09T01:20:26;7.03;;;2.05;;
5730;SDS011;2890;51.950;7.668;2022-09-09T01:23:08;2.85;;;1.88;;
5730;SDS011;2890;51.950;7.668;2022-09-09T01:26:08;2.33;;;1.97;;
5730;SDS011;2890;51.950;7.668;2022-09-09T01:28:42;5.20;;;1.70;;
5730;SDS011;2890;51.950;7.668;2022-09-09T01:31:11;3.47;;;1.80;;
5730;SDS011;2890;51.950;7.668;2022-09-09T01:33:43;6.60;;;2.17;;
5730;SDS011;2890;51.950;7.668;2022-09-09T01:36:10;2.90;;;2.08;;
5730;SDS011;2890;51.950;7.668;2022-09-09T01:38:41;2.55;;;1.92;;
5730;SDS011;2890;51.950;7.668;2022-09-09T01:41:09;5.07;;;1.88;;
5730;SDS011;2890;51.950;7.668;2022-09-09T01:43:36;1.95;;;1.75;;
5730;SDS011;2890;51.950;7.668;2022-09-09T01:46:04;3.97;;;1.90;;
5730;SDS011;2890;51.950;7.668;2022-09-09T01:48:30;4.15;;;2.25;;
5730;SDS011;2890;51.950;7.668;2022-09-09T01:50:58;2.90;;;1.67;;
5730;SDS011;2890;51.950;7.668;2022-09-09T01:53:24;2.23;;;1.80;;
5730;SDS011;2890;51.950;7.668;2022-09-09T01:55:54;1.67;;;1.58;;
5730;SDS011;2890;51.950;7.668;2022-09-09T01:58:32;4.60;;;1.83;;
5730;SDS011;2890;51.950;7.668;2022-09-09T02:01:08;2.60;;;1.60;;
5730;SDS011;2890;51.950;7.668;2022-09-09T02:03:42;2.47;;;1.77;;
5730;SDS011;2890;51.950;7.668;2022-09-09T02:06:18;3.70;;;1.80;;
5730;SDS011;2890;51.950;7.668;2022-09-09T02:08:52;2.50;;;2.00;;
5730;SDS011;2890;51.950;7.668;2022-09-09T02:11:22;2.87;;;1.73;;
5730;SDS011;2890;51.950;7.668;2022-09-09T02:13:53;3.53;;;1.95;;
5730;SDS011;2890;51.950;7.668;2022-09-09T02:16:23;1.90;;;1.73;;
5730;SDS011;2890;51.950;7.668;2022-09-09T02:18:55;2.97;;;1.70;;
5730;SDS011;2890;51.950;7.668;2022-09-09T02:21:25;3.70;;;1.70;;
5730;SDS011;2890;51.950;7.668;2022-09-09T02:23:55;2.92;;;2.15;;
5730;SDS011;2890;51.950;7.668;2022-09-09T02:26:25;4.70;;;2.22;;
5730;SDS011;2890;51.950;7.668;2022-09-09T02:28:54;3.40;;;1.80;;
5730;SDS011;2890;51.950;7.668;2022-09-09T02:31:24;2.20;;;1.73;;
5730;SDS011;2890;51.950;7.668;2022-09-09T02:33:52;4.00;;;2.40;;
5730;SDS011;2890;51.950;7.668;2022-09-09T02:36:22;5.93;;;1.97;;
5730;SDS011;2890;51.950;7.668;2022-09-09T02:38:51;3.40;;;2.40;;
5730;SDS011;2890;51.950;7.668;2022-09-09T02:41:19;3.30;;;2.10;;
5730;SDS011;2890;51.950;7.668;2022-09-09T02:43:50;2.90;;;2.03;;
5730;SDS011;2890;51.950;7.668;2022-09-09T02:46:26;2.58;;;2.05;;
5730;SDS011;2890;51.950;7.668;2022-09-09T02:49:03;2.95;;;2.00;;
5730;SDS011;2890;51.950;7.668;2022-09-09T02:51:35;4.25;;;1.90;;
5730;SDS011;2890;51.950;7.668;2022-09-09T02:54:10;4.32;;;1.77;;
5730;SDS011;2890;51.950;7.668;2022-09-09T02:56:43;2.20;;;2.00;;
5730;SDS011;2890;51.950;7.668;2022-09-09T02:59:16;3.90;;;2.05;;
5730;SDS011;2890;51.950;7.668;2022-09-09T03:01:44;5.00;;;2.23;;
5730;SDS011;2890;51.950;7.668;2022-09-09T03:04:12;2.67;;;2.27;;
5730;SDS011;2890;51.950;7.668;2022-09-09T03:06:39;4.05;;;2.20;;
5730;SDS011;2890;51.950;7.668;2022-09-09T03:09:05;2.95;;;2.45;;
5730;SDS011;2890;51.950;7.668;2022-09-09T03:11:35;3.50;;;2.25;;
5730;SDS011;2890;51.950;7.668;2022-09-09T03:14:03;4.00;;;2.80;;
5730;SDS011;2890;51.950;7.668;2022-09-09T03:16:30;5.80;;;3.17;;
5730;SDS011;2890;51.950;7.668;2022-09-09T03:18:59;4.53;;;3.17;;
5730;SDS011;2890;51.950;7.668;2022-09-09T03:21:26;5.55;;;3.72;;
5730;SDS011;2890;51.950;7.668;2022-09-09T03:23:53;4.03;;;3.50;;
5730;SDS011;2890;51.950;7.668;2022-09-09T03:26:19;6.33;;;3.87;;
5730;SDS011;2890;51.950;7.668;2022-09-09T03:28:46;5.35;;;3.38;;
5730;SDS011;2890;51.950;7.668;2022-09-09T03:31:16;4.33;;;3.13;;
5730;SDS011;2890;51.950;7.668;2022-09-09T03:33:44;4.28;;;3.20;;
5730;SDS011;2890;51.950;7.668;2022-09-09T03:36:12;4.40;;;3.35;;
5730;SDS011;2890;51.950;7.668;2022-09-09T03:38:40;4.28;;;3.33;;
5730;SDS011;2890;51.950;7.668;2022-09-09T03:41:06;6.75;;;3.45;;
5730;SDS011;2890;51.950;7.668;2022-09-09T03:43:34;4.25;;;3.65;;
5730;SDS011;2890;51.950;7.668;2022-09-09T03:46:02;4.30;;;3.00;;
5730;SDS011;2890;51.950;7.668;2022-09-09T03:48:29;3.50;;;3.07;;
5730;SDS011;2890;51.950;7.668;2022-09-09T03:50:56;5.80;;;3.75;;
5730;SDS011;2890;51.950;7.668;2022-09-09T03:53:27;6.43;;;4.30;;
5730;SDS011;2890;51.950;7.668;2022-09-09T03:55:54;5.63;;;3.43;;
5730;SDS011;2890;51.950;7.668;2022-09-09T03:58:25;5.88;;;3.63;;
5730;SDS011;2890;51.950;7.668;2022-09-09T04:00:53;4.63;;;3.53;;
5730;SDS011;2890;51.950;7.668;2022-09-09T04:03:20;4.20;;;3.20;;
5730;SDS011;2890;51.950;7.668;2022-09-09T04:05:49;4.13;;;3.60;;
5730;SDS011;2890;51.950;7.668;2022-09-09T04:08:16;5.03;;;3.78;;
5730;SDS011;2890;51.950;7.668;2022-09-09T04:10:45;4.10;;;3.33;;
5730;SDS011;2890;51.950;7.668;2022-09-09T04:13:13;6.20;;;3.38;;
5730;SDS011;2890;51.950;7.668;2022-09-09T04:15:42;5.80;;;3.17;;
5730;SDS011;2890;51.950;7.668;2022-09-09T04:18:10;5.57;;;3.40;;
5730;SDS011;2890;51.950;7.668;2022-09-09T04:20:37;4.22;;;3.35;;
5730;SDS011;2890;51.950;7.668;2022-09-09T04:23:04;4.63;;;3.33;;
5730;SDS011;2890;51.950;7.668;2022-09-09T04:25:31;5.18;;;2.75;;
5730;SDS011;2890;51.950;7.668;2022-09-09T04:28:00;20.40;;;4.25;;
5730;SDS011;2890;51.950;7.668;2022-09-09T04:30:27;6.17;;;3.97;;
5730;SDS011;2890;51.950;7.668;2022-09-09T04:32:54;5.47;;;3.50;;
5730;SDS011;2890;51.950;7.668;2022-09-09T04:35:21;6.75;;;3.45;;
5730;SDS011;2890;51.950;7.668;2022-09-09T04:37:48;3.28;;;2.97;;
5730;SDS011;2890;51.950;7.668;2022-09-09T04:40:15;5.60;;;3.22;;
5730;SDS011;2890;51.950;7.668;2022-09-09T04:42:41;7.60;;;3.70;;
5730;SDS011;2890;51.950;7.668;2022-09-09T04:45:10;4.50;;;2.80;;
5730;SDS011;2890;51.950;7.668;2022-09-09T04:47:38;3.03;;;2.72;;
5730;SDS011;2890;51.950;7.668;2022-09-09T04:50:06;3.67;;;3.07;;
5730;SDS011;2890;51.950;7.668;2022-09-09T04:52:33;4.35;;;3.10;;
5730;SDS011;2890;51.950;7.668;2022-09-09T04:55:00;4.53;;;3.17;;
5730;SDS011;2890;51.950;7.668;2022-09-09T04:57:28;3.00;;;2.70;;
5730;SDS011;2890;51.950;7.668;2022-09-09T04:59:56;5.10;;;3.10;;
5730;SDS011;2890;51.950;7.668;2022-09-09T05:02:25;5.40;;;3.08;;
5730;SDS011;2890;51.950;7.668;2022-09-09T05:04:52;6.13;;;2.90;;
5730;SDS011;2890;51.950;7.668;2022-09-09T05:07:19;2.88;;;2.60;;
5730;SDS011;2890;51.950;7.668;2022-09-09T05:09:45;5.85;;;2.97;;
5730;SDS011;2890;51.950;7.668;2022-09-09T05:12:14;3.30;;;2.77;;
5730;SDS011;2890;51.950;7.668;2022-09-09T05:14:41;2.92;;;2.63;;
5730;SDS011;2890;51.950;7.668;2022-09-09T05:17:08;4.93;;;3.57;;
5730;SDS011;2890;51.950;7.668;2022-09-09T05:19:36;6.88;;;3.10;;
5730;SDS011;2890;51.950;7.668;2022-09-09T05:22:03;4.80;;;2.60;;
5730;SDS011;2890;51.950;7.668;2022-09-09T05:24:30;4.97;;;3.10;;
5730;SDS011;2890;51.950;7.668;2022-09-09T05:26:58;6.83;;;2.90;;
5730;SDS011;2890;51.950;7.668;2022-09-09T05:29:26;4.70;;;2.73;;
5730;SDS011;2890;51.950;7.668;2022-09-09T05:31:53;7.20;;;2.87;;
5730;SDS011;2890;51.950;7.668;2022-09-09T05:34:20;6.50;;;2.85;;
5730;SDS011;2890;51.950;7.668;2022-09-09T05:36:48;4.20;;;2.50;;
5730;SDS011;2890;51.950;7.668;2022-09-09T05:39:16;2.90;;;2.63;;
5730;SDS011;2890;51.950;7.668;2022-09-09T05:41:42;2.88;;;2.53;;
5730;SDS011;2890;51.950;7.668;2022-09-09T05:44:09;3.90;;;2.40;;
5730;SDS011;2890;51.950;7.668;2022-09-09T05:46:36;6.60;;;2.78;;
5730;SDS011;2890;51.950;7.668;2022-09-09T05:49:03;4.10;;;2.42;;
5730;SDS011;2890;51.950;7.668;2022-09-09T05:51:30;5.07;;;2.58;;
5730;SDS011;2890;51.950;7.668;2022-09-09T05:53:58;5.53;;;2.67;;
5730;SDS011;2890;51.950;7.668;2022-09-09T05:56:26;7.03;;;2.83;;
5730;SDS011;2890;51.950;7.668;2022-09-09T05:58:54;6.15;;;2.45;;
5730;SDS011;2890;51.950;7.668;2022-09-09T06:01:22;5.85;;;2.63;;
5730;SDS011;2890;51.950;7.668;2022-09-09T06:03:51;4.32;;;2.33;;
5730;SDS011;2890;51.950;7.668;2022-09-09T06:06:19;5.22;;;2.78;;
5730;SDS011;2890;51.950;7.668;2022-09-09T06:08:47;3.20;;;2.25;;
5730;SDS011;2890;51.950;7.668;2022-09-09T06:11:18;2.60;;;2.22;;
5730;SDS011;2890;51.950;7.668;2022-09-09T06:13:46;5.15;;;2.78;;
5730;SDS011;2890;51.950;7.668;2022-09-09T06:16:16;5.05;;;2.15;;
5730;SDS011;2890;51.950;7.668;2022-09-09T06:18:45;4.13;;;2.67;;
5730;SDS011;2890;51.950;7.668;2022-09-09T06:21:15;3.55;;;2.40;;
5730;SDS011;2890;51.950;7.668;2022-09-09T06:23:43;8.23;;;2.40;;
5730;SDS011;2890;51.950;7.668;2022-09-09T06:26:11;5.75;;;2.17;;
5730;SDS011;2890;51.950;7.668;2022-09-09T06:28:41;4.70;;;2.20;;
5730;SDS011;2890;51.950;7.668;2022-09-09T06:31:08;6.78;;;2.47;;
5730;SDS011;2890;51.950;7.668;2022-09-09T06:33:37;6.25;;;2.05;;
5730;SDS011;2890;51.950;7.668;2022-09-09T06:36:07;7.63;;;2.72;;
5730;SDS011;2890;51.950;7.668;2022-09-09T06:38:36;4.03;;;2.45;;
5730;SDS011;2890;51.950;7.668;2022-09-09T06:41:03;5.72;;;1.95;;
5730;SDS011;2890;51.950;7.668;2022-09-09T06:43:30;7.40;;;2.10;;
5730;SDS011;2890;51.950;7.668;2022-09-09T06:46:00;9.65;;;2.13;;
5730;SDS011;2890;51.950;7.668;2022-09-09T06:48:28;4.60;;;2.17;;
5730;SDS011;2890;51.950;7.668;2022-09-09T06:51:02;4.22;;;2.28;;
5730;SDS011;2890;51.950;7.668;2022-09-09T06:53:30;3.22;;;1.95;;
5730;SDS011;2890;51.950;7.668;2022-09-09T06:55:58;2.95;;;1.80;;
5730;SDS011;2890;51.950;7.668;2022-09-09T06:58:26;2.78;;;2.17;;
5730;SDS011;2890;51.950;7.668;2022-09-09T07:00:53;4.10;;;2.00;;
5730;SDS011;2890;51.950;7.668;2022-09-09T07:03:28;8.25;;;2.75;;
5730;SDS011;2890;51.950;7.668;2022-09-09T07:05:55;4.55;;;2.33;;
5730;SDS011;2890;51.950;7.668;2022-09-09T07:08:22;4.05;;;2.05;;
5730;SDS011;2890;51.950;7.668;2022-09-09T07:10:50;7.03;;;2.17;;
5730;SDS011;2890;51.950;7.668;2022-09-09T07:13:18;3.75;;;2.30;;
5730;SDS011;2890;51.950;7.668;2022-09-09T07:15:49;5.75;;;2.67;;
5730;SDS011;2890;51.950;7.668;2022-09-09T07:18:17;4.40;;;2.15;;
5730;SDS011;2890;51.950;7.668;2022-09-09T07:20:52;4.57;;;2.30;;
5730;SDS011;2890;51.950;7.668;2022-09-09T07:23:19;6.07;;;2.13;;
5730;SDS011;2890;51.950;7.668;2022-09-09T07:25:45;5.50;;;2.45;;
5730;SDS011;2890;51.950;7.668;2022-09-09T07:28:13;6.15;;;2.00;;
5730;SDS011;2890;51.950;7.668;2022-09-09T07:30:40;4.47;;;2.22;;
5730;SDS011;2890;51.950;7.668;2022-09-09T07:33:08;3.72;;;2.08;;
5730;SDS011;2890;51.950;7.668;2022-09-09T07:35:36;4.47;;;2.03;;
5730;SDS011;2890;51.950;7.668;2022-09-09T07:38:04;5.75;;;2.25;;
5730;SDS011;2890;51.950;7.668;2022-09-09T07:40:31;9.93;;;2.25;;
5730;SDS011;2890;51.950;7.668;2022-09-09T07:43:01;4.88;;;1.88;;
5730;SDS011;2890;51.950;7.668;2022-09-09T07:45:28;5.90;;;2.22;;
5730;SDS011;2890;51.950;7.668;2022-09-09T07:47:56;5.10;;;1.65;;
5730;SDS011;2890;51.950;7.668;2022-09-09T07:50:23;3.72;;;2.17;;
5730;SDS011;2890;51.950;7.668;2022-09-09T07:52:51;3.28;;;1.70;;
5730;SDS011;2890;51.950;7.668;2022-09-09T07:55:18;3.83;;;2.30;;
5730;SDS011;2890;51.950;7.668;2022-09-09T07:57:45;4.38;;;1.90;;
5730;SDS011;2890;51.950;7.668;2022-09-09T08:00:13;5.10;;;2.20;;
5730;SDS011;2890;51.950;7.668;2022-09-09T08:02:40;3.83;;;1.70;;
5730;SDS011;2890;51.950;7.668;2022-09-09T08:05:09;5.13;;;1.80;;
5730;SDS011;2890;51.950;7.668;2022-09-09T08:07:35;5.93;;;1.85;;
5730;SDS011;2890;51.950;7.668;2022-09-09T08:10:06;4.40;;;2.28;;
5730;SDS011;2890;51.950;7.668;2022-09-09T08:12:33;5.30;;;1.90;;
5730;SDS011;2890;51.950;7.668;2022-09-09T08:15:00;5.78;;;1.95;;
5730;SDS011;2890;51.950;7.668;2022-09-09T08:17:26;4.18;;;1.98;;
5730;SDS011;2890;51.950;7.668;2022-09-09T08:19:53;5.15;;;2.30;;
5730;SDS011;2890;51.950;7.668;2022-09-09T08:22:20;3.70;;;1.83;;
5730;SDS011;2890;51.950;7.668;2022-09-09T08:24:47;4.85;;;1.77;;
5730;SDS011;2890;51.950;7.668;2022-09-09T08:27:15;4.53;;;1.80;;
5730;SDS011;2890;51.950;7.668;2022-09-09T08:29:42;6.32;;;1.85;;
5730;SDS011;2890;51.950;7.668;2022-09-09T08:32:09;4.88;;;1.90;;
5730;SDS011;2890;51.950;7.668;2022-09-09T08:34:36;5.80;;;2.28;;
5730;SDS011;2890;51.950;7.668;2022-09-09T08:37:03;5.55;;;2.13;;
5730;SDS011;2890;51.950;7.668;2022-09-09T08:39:30;6.32;;;1.92;;
5730;SDS011;2890;51.950;7.668;2022-09-09T08:42:05;3.17;;;1.52;;
5730;SDS011;2890;51.950;7.668;2022-09-09T08:44:45;3.42;;;1.58;;
5730;SDS011;2890;51.950;7.668;2022-09-09T08:47:23;4.55;;;1.77;;
5730;SDS011;2890;51.950;7.668;2022-09-09T08:52:51;3.60;;;1.63;;
5730;SDS011;2890;51.950;7.668;2022-09-09T08:55:23;6.15;;;1.88;;
5730;SDS011;2890;51.950;7.668;2022-09-09T08:57:52;5.43;;;2.00;;
5730;SDS011;2890;51.950;7.668;2022-09-09T09:00:21;8.35;;;2.00;;
5730;SDS011;2890;51.950;7.668;2022-09-09T09:02:54;4.32;;;2.05;;
5730;SDS011;2890;51.950;7.668;2022-09-09T09:05:36;4.43;;;1.73;;
5730;SDS011;2890;51.950;7.668;2022-09-09T09:08:11;6.30;;;2.08;;
5730;SDS011;2890;51.950;7.668;2022-09-09T09:10:47;9.77;;;2.25;;
5730;SDS011;2890;51.950;7.668;2022-09-09T09:13:16;4.15;;;1.88;;
5730;SDS011;2890;51.950;7.668;2022-09-09T09:15:48;3.75;;;1.50;;
5730;SDS011;2890;51.950;7.668;2022-09-09T09:18:17;5.03;;;1.90;;
5730;SDS011;2890;51.950;7.668;2022-09-09T09:20:47;2.75;;;1.58;;
5730;SDS011;2890;51.950;7.668;2022-09-09T09:23:21;4.45;;;1.88;;
5730;SDS011;2890;51.950;7.668;2022-09-09T09:25:50;5.30;;;1.98;;
5730;SDS011;2890;51.950;7.668;2022-09-09T09:28:17;2.60;;;1.27;;
5730;SDS011;2890;51.950;7.668;2022-09-09T09:30:48;4.40;;;1.42;;
5730;SDS011;2890;51.950;7.668;2022-09-09T09:33:18;4.07;;;1.27;;
5730;SDS011;2890;51.950;7.668;2022-09-09T09:35:48;3.80;;;1.92;;
5730;SDS011;2890;51.950;7.668;2022-09-09T09:38:16;7.03;;;1.90;;
5730;SDS011;2890;51.950;7.668;2022-09-09T09:40:48;3.03;;;1.83;;
5730;SDS011;2890;51.950;7.668;2022-09-09T09:43:18;5.75;;;1.60;;
5730;SDS011;2890;51.950;7.668;2022-09-09T09:45:49;5.60;;;1.88;;
5730;SDS011;2890;51.950;7.668;2022-09-09T09:48:16;6.70;;;2.10;;
5730;SDS011;2890;51.950;7.668;2022-09-09T09:50:46;4.82;;;1.90;;
5730;SDS011;2890;51.950;7.668;2022-09-09T09:53:17;4.43;;;1.98;;
5730;SDS011;2890;51.950;7.668;2022-09-09T09:55:48;3.95;;;1.75;;
5730;SDS011;2890;51.950;7.668;2022-09-09T09:58:20;4.53;;;1.77;;
5730;SDS011;2890;51.950;7.668;2022-09-09T10:00:49;4.45;;;1.70;;
5730;SDS011;2890;51.950;7.668;2022-09-09T10:03:24;8.57;;;2.17;;
5730;SDS011;2890;51.950;7.668;2022-09-09T10:05:51;3.95;;;1.33;;
5730;SDS011;2890;51.950;7.668;2022-09-09T10:08:18;9.80;;;2.00;;
5730;SDS011;2890;51.950;7.668;2022-09-09T10:10:52;3.63;;;1.40;;
5730;SDS011;2890;51.950;7.668;2022-09-09T10:13:22;5.97;;;1.70;;
5730;SDS011;2890;51.950;7.668;2022-09-09T10:15:57;5.32;;;1.67;;
5730;SDS011;2890;51.950;7.668;2022-09-09T10:18:35;4.00;;;1.50;;
5730;SDS011;2890;51.950;7.668;2022-09-09T10:21:03;4.85;;;1.88;;
5730;SDS011;2890;51.950;7.668;2022-09-09T10:23:39;3.45;;;1.67;;
5730;SDS011;2890;51.950;7.668;2022-09-09T10:26:15;6.13;;;1.98;;
5730;SDS011;2890;51.950;7.668;2022-09-09T10:28:51;2.72;;;1.70;;
5730;SDS011;2890;51.950;7.668;2022-09-09T10:31:25;1.73;;;1.40;;
5730;SDS011;2890;51.950;7.668;2022-09-09T10:33:57;4.10;;;1.70;;
5730;SDS011;2890;51.950;7.668;2022-09-09T10:36:27;4.40;;;1.80;;
5730;SDS011;2890;51.950;7.668;2022-09-09T10:38:57;3.28;;;1.48;;
5730;SDS011;2890;51.950;7.668;2022-09-09T10:41:31;5.60;;;1.80;;
5730;SDS011;2890;51.950;7.668;2022-09-09T10:44:10;3.78;;;1.77;;
5730;SDS011;2890;51.950;7.668;2022-09-09T10:46:45;4.05;;;1.60;;
5730;SDS011;2890;51.950;7.668;2022-09-09T10:49:23;4.80;;;2.00;;
5730;SDS011;2890;51.950;7.668;2022-09-09T10:52:13;5.32;;;1.95;;
5730;SDS011;2890;51.950;7.668;2022-09-09T10:54:49;4.95;;;2.28;;
5730;SDS011;2890;51.950;7.668;2022-09-09T10:57:25;4.93;;;2.20;;
5730;SDS011;2890;51.950;7.668;2022-09-09T10:59:57;6.25;;;2.10;;
5730;SDS011;2890;51.950;7.668;2022-09-09T11:02:34;3.38;;;1.70;;
5730;SDS011;2890;51.950;7.668;2022-09-09T11:05:02;4.10;;;2.00;;
5730;SDS011;2890;51.950;7.668;2022-09-09T11:07:33;3.05;;;1.92;;
5730;SDS011;2890;51.950;7.668;2022-09-09T11:10:04;3.53;;;2.13;;
5730;SDS011;2890;51.950;7.668;2022-09-09T11:12:33;2.47;;;1.92;;
5730;SDS011;2890;51.950;7.668;2022-09-09T11:15:03;5.55;;;1.63;;
5730;SDS011;2890;51.950;7.668;2022-09-09T11:17:33;4.45;;;2.00;;
5730;SDS011;2890;51.950;7.668;2022-09-09T11:20:06;3.35;;;1.80;;
5730;SDS011;2890;51.950;7.668;2022-09-09T11:22:39;4.78;;;2.38;;
5730;SDS011;2890;51.950;7.668;2022-09-09T11:25:08;2.80;;;2.10;;
5730;SDS011;2890;51.950;7.668;2022-09-09T11:27:39;4.25;;;2.20;;
5730;SDS011;2890;51.950;7.668;2022-09-09T11:30:15;3.35;;;2.50;;
5730;SDS011;2890;51.950;7.668;2022-09-09T11:33:00;2.95;;;1.90;;
5730;SDS011;2890;51.950;7.668;2022-09-09T11:35:47;4.25;;;1.92;;
5730;SDS011;2890;51.950;7.668;2022-09-09T11:38:26;3.08;;;1.85;;
5730;SDS011;2890;51.950;7.668;2022-09-09T11:40:54;5.22;;;1.90;;
5730;SDS011;2890;51.950;7.668;2022-09-09T11:43:25;4.72;;;2.10;;
5730;SDS011;2890;51.950;7.668;2022-09-09T11:45:57;1.92;;;1.83;;
5730;SDS011;2890;51.950;7.668;2022-09-09T11:48:28;4.57;;;1.65;;
5730;SDS011;2890;51.950;7.668;2022-09-09T11:51:01;3.08;;;1.98;;
5730;SDS011;2890;51.950;7.668;2022-09-09T11:53:32;5.30;;;1.90;;
5730;SDS011;2890;51.950;7.668;2022-09-09T11:56:04;3.20;;;1.90;;
5730;SDS011;2890;51.950;7.668;2022-09-09T11:58:35;4.07;;;2.38;;
5730;SDS011;2890;51.950;7.668;2022-09-09T12:01:15;5.55;;;2.17;;
5730;SDS011;2890;51.950;7.668;2022-09-09T12:03:55;4.32;;;2.13;;
5730;SDS011;2890;51.950;7.668;2022-09-09T12:06:42;3.53;;;1.60;;
5730;SDS011;2890;51.950;7.668;2022-09-09T12:09:22;2.58;;;1.50;;
5730;SDS011;2890;51.950;7.668;2022-09-09T12:11:53;5.15;;;1.63;;
5730;SDS011;2890;51.950;7.668;2022-09-09T12:14:34;3.03;;;1.23;;
5730;SDS011;2890;51.950;7.668;2022-09-09T12:17:09;1.95;;;1.50;;
5730;SDS011;2890;51.950;7.668;2022-09-09T12:19:44;2.83;;;1.30;;
5730;SDS011;2890;51.950;7.668;2022-09-09T12:22:14;3.00;;;1.35;;
5730;SDS011;2890;51.950;7.668;2022-09-09T12:24:52;2.72;;;1.33;;
5730;SDS011;2890;51.950;7.668;2022-09-09T12:27:25;3.53;;;1.45;;
5730;SDS011;2890;51.950;7.668;2022-09-09T12:29:58;2.50;;;1.25;;
5730;SDS011;2890;51.950;7.668;2022-09-09T12:32:30;2.17;;;1.38;;
5730;SDS011;2890;51.950;7.668;2022-09-09T12:34:58;3.03;;;1.30;;
5730;SDS011;2890;51.950;7.668;2022-09-09T12:37:32;2.35;;;1.20;;
5730;SDS011;2890;51.950;7.668;2022-09-09T12:40:02;3.85;;;1.13;;
5730;SDS011;2890;51.950;7.668;2022-09-09T12:42:31;3.95;;;1.42;;
5730;SDS011;2890;51.950;7.668;2022-09-09T12:44:59;3.75;;;1.73;;
5730;SDS011;2890;51.950;7.668;2022-09-09T12:47:34;4.25;;;1.60;;
5730;SDS011;2890;51.950;7.668;2022-09-09T12:50:12;5.43;;;1.52;;
5730;SDS011;2890;51.950;7.668;2022-09-09T12:52:44;2.13;;;1.30;;
5730;SDS011;2890;51.950;7.668;2022-09-09T12:55:16;2.72;;;1.15;;
5730;SDS011;2890;51.950;7.668;2022-09-09T12:57:45;4.20;;;1.60;;
5730;SDS011;2890;51.950;7.668;2022-09-09T13:00:14;2.05;;;1.40;;
5730;SDS011;2890;51.950;7.668;2022-09-09T13:02:46;1.92;;;1.25;;
5730;SDS011;2890;51.950;7.668;2022-09-09T13:05:16;3.97;;;1.90;;
5730;SDS011;2890;51.950;7.668;2022-09-09T13:07:46;2.90;;;1.38;;
5730;SDS011;2890;51.950;7.668;2022-09-09T13:10:14;4.25;;;1.63;;
5730;SDS011;2890;51.950;7.668;2022-09-09T13:12:46;3.20;;;1.40;;
5730;SDS011;2890;51.950;7.668;2022-09-09T13:15:16;3.33;;;1.40;;
5730;SDS011;2890;51.950;7.668;2022-09-09T13:17:51;1.55;;;1.20;;
5730;SDS011;2890;51.950;7.668;2022-09-09T13:20:20;4.80;;;1.45;;
5730;SDS011;2890;51.950;7.668;2022-09-09T13:22:49;2.50;;;1.33;;
5730;SDS011;2890;51.950;7.668;2022-09-09T13:25:19;2.40;;;1.23;;
5730;SDS011;2890;51.950;7.668;2022-09-09T13:27:59;2.53;;;1.42;;
5730;SDS011;2890;51.950;7.668;2022-09-09T13:30:28;3.50;;;1.65;;
5730;SDS011;2890;51.950;7.668;2022-09-09T13:33:00;8.15;;;2.38;;
5730;SDS011;2890;51.950;7.668;2022-09-09T13:35:55;10.25;;;2.53;;
5730;SDS011;2890;51.950;7.668;2022-09-09T13:38:25;5.43;;;2.30;;
5730;SDS011;2890;51.950;7.668;2022-09-09T13:40:56;4.22;;;2.10;;
5730;SDS011;2890;51.950;7.668;2022-09-09T13:43:26;7.72;;;2.65;;
5730;SDS011;2890;51.950;7.668;2022-09-09T13:45:55;3.28;;;2.38;;
5730;SDS011;2890;51.950;7.668;2022-09-09T13:48:23;3.63;;;2.25;;
5730;SDS011;2890;51.950;7.668;2022-09-09T13:50:54;4.25;;;2.33;;
5730;SDS011;2890;51.950;7.668;2022-09-09T13:53:24;5.25;;;2.55;;
5730;SDS011;2890;51.950;7.668;2022-09-09T13:55:51;3.80;;;1.90;;
5730;SDS011;2890;51.950;7.668;2022-09-09T13:58:19;5.10;;;2.40;;
5730;SDS011;2890;51.950;7.668;2022-09-09T14:00:47;5.82;;;2.20;;
5730;SDS011;2890;51.950;7.668;2022-09-09T14:03:14;5.47;;;2.50;;
5730;SDS011;2890;51.950;7.668;2022-09-09T14:05:41;5.78;;;2.17;;
5730;SDS011;2890;51.950;7.668;2022-09-09T14:08:11;2.67;;;1.70;;
5730;SDS011;2890;51.950;7.668;2022-09-09T14:10:47;2.35;;;1.40;;
5730;SDS011;2890;51.950;7.668;2022-09-09T14:13:14;2.40;;;1.30;;
5730;SDS011;2890;51.950;7.668;2022-09-09T14:15:40;2.65;;;1.55;;
5730;SDS011;2890;51.950;7.668;2022-09-09T14:18:09;2.08;;;1.10;;
5730;SDS011;2890;51.950;7.668;2022-09-09T14:20:37;2.53;;;1.30;;
5730;SDS011;2890;51.950;7.668;2022-09-09T14:23:04;1.95;;;1.08;;
5730;SDS011;2890;51.950;7.668;2022-09-09T14:25:31;1.38;;;1.10;;
5730;SDS011;2890;51.950;7.668;2022-09-09T14:27:59;3.40;;;1.40;;
5730;SDS011;2890;51.950;7.668;2022-09-09T14:30:27;5.10;;;2.03;;
5730;SDS011;2890;51.950;7.668;2022-09-09T14:32:53;9.82;;;2.88;;
5730;SDS011;2890;51.950;7.668;2022-09-09T14:35:20;5.95;;;2.95;;
5730;SDS011;2890;51.950;7.668;2022-09-09T14:37:47;3.30;;;1.58;;
5730;SDS011;2890;51.950;7.668;2022-09-09T14:40:14;7.63;;;1.80;;
5730;SDS011;2890;51.950;7.668;2022-09-09T14:42:41;1.95;;;1.40;;
5730;SDS011;2890;51.950;7.668;2022-09-09T14:45:10;2.60;;;1.55;;
5730;SDS011;2890;51.950;7.668;2022-09-09T14:47:37;2.13;;;1.60;;
5730;SDS011;2890;51.950;7.668;2022-09-09T14:50:04;3.97;;;1.85;;
5730;SDS011;2890;51.950;7.668;2022-09-09T14:52:33;5.93;;;2.03;;
5730;SDS011;2890;51.950;7.668;2022-09-09T14:54:59;6.35;;;1.60;;
5730;SDS011;2890;51.950;7.668;2022-09-09T14:57:26;2.78;;;2.10;;
5730;SDS011;2890;51.950;7.668;2022-09-09T14:59:53;2.65;;;1.60;;
5730;SDS011;2890;51.950;7.668;2022-09-09T15:02:21;6.55;;;2.03;;
5730;SDS011;2890;51.950;7.668;2022-09-09T15:04:48;6.25;;;2.28;;
5730;SDS011;2890;51.950;7.668;2022-09-09T15:07:17;3.63;;;2.20;;
5730;SDS011;2890;51.950;7.668;2022-09-09T15:09:44;4.60;;;2.25;;
5730;SDS011;2890;51.950;7.668;2022-09-09T15:12:12;3.85;;;2.13;;
5730;SDS011;2890;51.950;7.668;2022-09-09T15:14:40;2.60;;;2.22;;
5730;SDS011;2890;51.950;7.668;2022-09-09T15:17:07;8.88;;;3.08;;
5730;SDS011;2890;51.950;7.668;2022-09-09T15:19:35;5.90;;;2.75;;
5730;SDS011;2890;51.950;7.668;2022-09-09T15:22:02;3.33;;;2.42;;
5730;SDS011;2890;51.950;7.668;2022-09-09T15:24:30;2.63;;;2.42;;
5730;SDS011;2890;51.950;7.668;2022-09-09T15:26:57;2.88;;;2.15;;
5730;SDS011;2890;51.950;7.668;2022-09-09T15:29:24;2.83;;;2.10;;
5730;SDS011;2890;51.950;7.668;2022-09-09T15:31:51;2.17;;;2.08;;
5730;SDS011;2890;51.950;7.668;2022-09-09T15:34:19;2.78;;;2.15;;
5730;SDS011;2890;51.950;7.668;2022-09-09T15:36:47;2.65;;;1.90;;